Latest Weather Observations for Kingaroy

IDQ60901

Issued at 3:51 am EST Friday 22 February 2019 (issued every 10 minutes, with the page automatically refreshed every 10 minutes)

About weather observations | Map of Brisbane area stations | Latest observations for Brisbane area | Other Formats
Station Details ID: 040922 Name: KINGAROY AIRPORT Lat: -26.57 Lon: 151.84 Height: 433.67 m
Data from the previous 72 hours. | See also: Recent months at Kingaroy
Date/Time
EST
Temp
°C
App
Temp
°C
Dew
Point
°C
Rel
Hum
%
Delta-T
°C
Wind Press
QNH
hPa
Press
MSL
hPa
Rain since
9am
mm
Dir  Spd
km/h
Gust
km/h
Spd
kts
Gust
kts
22/03:30am 21.9 20.7 17.5 76 2.8 SE 20 30 11 16 1009.2 1006.7 0.0
22/03:00am 22.0 20.8 17.6 76 2.8 SSE 20 33 11 18 1009.3 1006.8 0.0
22/02:30am 21.8 20.6 17.4 76 2.8 SSE 20 32 11 17 1009.4 1006.9 0.0
22/02:00am 21.8 20.7 17.2 75 2.9 SE 19 32 10 17 1009.5 1007.0 0.0
22/01:30am 21.9 21.4 16.8 73 3.2 SSE 15 26 8 14 1009.6 1007.1 0.0
22/01:00am 22.2 21.7 16.9 72 3.3 SE 15 22 8 12 1009.8 1007.3 0.0
22/12:30am 22.2 21.1 17.3 74 3.1 SE 19 28 10 15 1009.8 1007.3 0.0
22/12:00am 22.4 21.4 17.5 74 3.1 SE 19 28 10 15 1010.0 1007.5 0.0
 
Date/Time
EST
Temp
°C
App
Temp
°C
Dew
Point
°C
Rel
Hum
%
Delta-T
°C
Wind Press
QNH
hPa
Press
MSL
hPa
Rain since
9am
mm
Dir  Spd
km/h
Gust
km/h
Spd
kts
Gust
kts
21/11:30pm 22.5 22.3 17.6 74 3.1 SE 15 28 8 15 1010.2 1007.7 0.0
21/11:00pm 22.6 22.8 17.7 74 3.1 SSE 13 19 7 10 1010.6 1008.1 0.0
21/10:30pm 23.2 23.1 17.9 72 3.4 SE 15 20 8 11 1010.5 1008.0 0.0
21/10:00pm 23.5 23.8 17.9 71 3.6 SE 13 20 7 11 1010.6 1008.1 0.0
21/09:30pm 23.6 23.2 18.0 71 3.6 ESE 17 28 9 15 1010.6 1008.1 0.0
21/09:00pm 24.0 24.1 18.4 71 3.6 ESE 15 20 8 11 1010.5 1008.0 0.0
21/08:30pm 24.6 25.0 19.0 71 3.6 ESE 15 24 8 13 1010.1 1007.6 0.0
21/08:00pm 25.0 25.0 18.9 69 4.0 ESE 17 30 9 16 1009.5 1007.0 0.0
21/07:30pm 25.7 25.3 18.9 66 4.4 ESE 19 30 10 16 1009.1 1006.6 0.0
21/07:00pm 26.5 26.5 18.9 63 5.0 ESE 17 24 9 13 1008.5 1006.0 0.0
21/06:30pm 27.7 27.4 19.2 60 5.6 ESE 19 30 10 16 1007.9 1005.4 0.0
21/06:00pm 28.3 27.0 19.0 57 6.1 ESE 24 35 13 19 1007.5 1005.0 0.0
21/05:30pm 27.9 28.2 20.5 64 5.0 SSE 19 39 10 21 1007.5 1005.0 0.0
21/05:00pm 31.2 29.9 18.2 46 8.5 ESE 22 37 12 20 1006.9 1004.4 0.0
21/04:30pm 31.6 28.6 16.7 40 9.6 E 28 39 15 21 1006.4 1003.9 0.0
21/04:00pm 32.8 30.4 15.3 34 11.1 ESE 22 35 12 19 1006.6 1004.0 0.0
21/03:30pm 33.1 31.1 15.6 35 11.1 ESE 20 32 11 17 1006.3 1003.8 0.0
21/03:00pm 33.4 31.3 16.3 36 11.0 ESE 22 35 12 19 1006.7 1004.1 0.0
21/02:30pm 33.4 31.5 15.8 34 11.2 SE 20 32 11 17 1007.2 1004.7 0.0
21/02:00pm 33.0 31.7 15.9 35 10.9 ESE 17 32 9 17 1007.7 1005.2 0.0
21/01:30pm 32.9 31.6 16.7 38 10.4 SE 19 32 10 17 1008.2 1005.7 0.0
21/01:00pm 32.3 30.5 17.0 40 9.9 ESE 22 33 12 18 1008.5 1006.0 0.0
21/12:30pm 32.4 31.6 17.1 40 9.9 ESE 17 28 9 15 1008.9 1006.5 0.0
21/12:00pm 31.7 31.2 17.9 43 9.0 SE 17 32 9 17 1009.4 1006.9 0.0
21/11:30am 31.0 30.5 17.7 45 8.6 SE 17 30 9 16 1009.7 1007.2 0.0
21/11:00am 30.5 30.4 17.9 47 8.2 ESE 15 30 8 16 1010.1 1007.6 0.0
21/10:30am 29.0 28.2 18.1 51 7.1 ESE 19 28 10 15 1010.4 1007.9 0.0
21/10:00am 28.1 27.8 18.2 55 6.4 SE 17 28 9 15 1010.5 1008.0 0.0
21/09:30am 26.5 25.8 18.6 62 5.1 ESE 20 30 11 16 1010.6 1008.1 0.0
21/09:00am 25.3 24.6 18.7 67 4.3 SE 20 30 11 16 1010.7 1008.2 0.0
21/08:38am 24.9 25.1 19.3 71 3.7 SE 17 26 9 14 1010.6 1008.1 0.0
21/08:30am 24.6 25.3 19.7 74 3.2 SE 15 22 8 12 1010.6 1008.1 0.0
21/08:00am 22.9 23.1 19.3 80 2.3 SE 17 30 9 16 1010.5 1008.0 0.0
21/07:30am 22.6 23.2 19.4 82 2.1 SE 15 20 8 11 1010.3 1007.8 0.0
21/07:00am 22.3 24.3 20.0 87 1.5 SSE 9 19 5 10 1010.1 1007.6 0.0
21/06:30am 21.7 23.8 20.2 91 1.0 SSE 9 13 5 7 1009.6 1007.1 0.0
21/06:00am 21.1 23.2 20.1 94 0.7 SSE 9 15 5 8 1009.2 1006.7 0.0
21/05:38am 20.5 22.7 19.7 95 0.5 SSE 7 9 4 5 1008.8 1006.4 0.0
21/05:30am 20.4 22.1 19.4 94 0.6 SSE 9 13 5 7 1008.7 1006.2 0.0
21/05:00am 20.3 21.8 19.0 92 0.8 SSE 9 13 5 7 1008.4 1005.9 0.0
21/04:58am 20.4 21.6 19.1 92 0.8 SSE 11 13 6 7 1008.3 1005.8 0.0
21/04:30am 20.9 22.7 19.6 92 0.8 S 9 13 5 7 1008.2 1005.7 0.0
21/04:00am 21.0 23.3 19.5 91 1.0 ESE 6 9 3 5 1007.9 1005.4 0.0
21/03:52am 21.0 23.0 19.1 89 1.2 ESE 7 11 4 6 1007.9 1005.4 0.0
21/03:30am 21.1 22.1 19.4 90 1.1 S 13 17 7 9 1007.9 1005.4 0.0
21/03:00am 21.2 22.0 19.1 88 1.4 SSE 13 17 7 9 1008.1 1005.6 0.0
21/02:30am 21.6 22.9 19.2 86 1.5 SSE 11 15 6 8 1008.3 1005.8 0.0
21/02:00am 22.2 23.2 19.4 84 1.8 SE 13 20 7 11 1008.6 1006.1 0.0
21/01:35am 22.5 23.9 19.5 83 1.9 SE 11 17 6 9 1009.1 1006.6 0.0
21/01:30am 22.5 23.9 19.5 83 1.9 SE 11 17 6 9 1009.1 1006.6 0.0
21/01:15am 22.6 24.0 19.6 83 2.0 SE 11 19 6 10 1009.4 1006.9 0.0
21/01:00am 22.6 23.9 19.4 82 2.1 SE 11 15 6 8 1009.6 1007.1 0.0
21/12:30am 22.9 23.3 19.1 79 2.5 SE 15 20 8 11 1009.9 1007.4 0.0
21/12:00am 23.1 23.5 18.2 74 3.1 SE 13 19 7 10 1010.1 1007.6 0.0
 
Date/Time
EST
Temp
°C
App
Temp
°C
Dew
Point
°C
Rel
Hum
%
Delta-T
°C
Wind Press
QNH
hPa
Press
MSL
hPa
Rain since
9am
mm
Dir  Spd
km/h
Gust
km/h
Spd
kts
Gust
kts
20/11:30pm 23.6 24.4 17.3 67 4.0 SE 9 15 5 8 1010.1 1007.6 0.0
20/11:00pm 24.4 25.3 16.6 61 4.9 SSE 7 11 4 6 1010.0 1007.5 0.0
20/10:30pm 24.6 25.1 16.6 61 5.0 SE 9 17 5 9 1009.4 1006.9 0.0
20/10:00pm 24.8 23.1 16.2 58 5.4 ESE 20 30 11 16 1009.1 1006.6 0.0
20/09:30pm 26.2 25.0 16.2 54 6.3 SSE 17 26 9 14 1009.5 1007.0 0.0
20/09:00pm 26.0 27.4 16.3 55 6.1 E 4 11 2 6 1008.4 1005.9 0.0
20/08:30pm 26.8 26.5 14.5 46 7.5 E 9 11 5 6 1008.2 1005.7 0.0
20/08:00pm 27.9 26.1 14.5 44 8.2 E 17 24 9 13 1007.7 1005.2 0.0
20/07:30pm 28.8 27.4 14.6 42 8.7 E 15 24 8 13 1007.5 1005.0 0.0
20/07:00pm 30.2 28.3 13.0 34 10.4 E 15 24 8 13 1007.0 1004.5 0.0
20/06:30pm 31.3 28.6 11.7 30 11.7 E 17 24 9 13 1006.3 1003.8 0.0
20/06:00pm 32.7 29.3 11.3 27 12.8 E 20 30 11 16 1006.2 1003.7 0.0
20/05:30pm 33.8 30.5 11.6 26 13.3 E 20 30 11 16 1006.0 1003.5 0.0
20/05:00pm 34.6 31.3 11.7 25 13.8 E 20 28 11 15 1005.9 1003.4 0.0
20/04:30pm 35.5 32.8 11.8 24 14.4 E 17 28 9 15 1005.7 1003.2 0.0
20/04:00pm 36.1 33.2 11.0 22 15.1 ESE 17 32 9 17 1005.7 1003.2 0.0
20/03:30pm 35.8 32.8 10.8 22 14.9 SE 17 30 9 16 1005.8 1003.3 0.0
20/03:00pm 35.6 33.3 10.6 22 14.9 S 13 24 7 13 1006.1 1003.6 0.0
20/02:30pm 35.5 33.2 9.1 20 15.4 ESE 11 20 6 11 1006.7 1004.1 0.0
20/02:00pm 34.9 32.1 8.6 20 15.2 SE 13 20 7 11 1007.2 1004.7 0.0
20/01:30pm 34.5 31.5 7.5 19 15.3 SE 13 28 7 15 1007.7 1005.2 0.0
20/01:00pm 34.2 31.4 10.1 23 14.2 ESE 15 26 8 14 1008.4 1005.9 0.0
20/12:30pm 33.8 31.7 11.0 25 13.6 SE 13 20 7 11 1008.9 1006.5 0.0
20/12:00pm 32.1 30.4 11.3 28 12.4 ESE 11 20 6 11 1009.3 1006.8 0.0
20/11:30am 31.5 30.5 13.3 33 11.1 ESE 11 19 6 10 1009.8 1007.3 0.0
20/11:00am 30.6 29.8 15.1 39 9.7 E 13 20 7 11 1010.3 1007.8 0.0
20/10:30am 29.0 29.1 15.5 44 8.4 SE 9 19 5 10 1010.8 1008.4 0.0
20/10:00am 28.7 28.5 15.6 45 8.2 SE 11 19 6 10 1011.2 1008.8 0.0
20/09:30am 27.0 27.0 17.2 55 6.2 ESE 13 19 7 10 1011.5 1009.0 0.0
20/09:00am 25.9 26.5 17.8 61 5.2 SSE 11 19 6 10 1011.3 1008.9 0.0
20/08:37am 24.5 24.6 17.5 65 4.4 SSE 13 17 7 9 1011.5 1009.0 0.0
20/08:30am 25.1 25.7 18.5 67 4.3 SSE 13 20 7 11 1011.5 1009.0 0.0
20/08:00am 23.3 23.8 18.4 74 3.1 SSE 13 22 7 12 1011.2 1008.8 0.0
20/07:30am 22.0 23.4 18.6 81 2.2 ESE 9 17 5 9 1011.1 1008.7 0.0
20/07:22am 21.6 22.8 18.2 81 2.2 SE 9 15 5 8 1011.0 1008.6 0.0
20/07:03am 21.4 22.6 18.2 82 2.0 SE 9 17 5 9 1010.8 1008.4 0.0
20/07:00am 21.3 22.4 18.1 82 2.0 SE 9 13 5 7 1010.7 1008.2 0.0
20/06:30am 19.9 20.9 18.7 93 0.8 ESE 11 17 6 9 1010.6 1008.1 0.0
20/06:21am 19.8 21.5 19.3 97 0.3 ESE 9 15 5 8 1010.5 1008.0 0.0
20/06:00am 19.2 20.4 19.0 99 0.1 ESE 11 17 6 9 1010.2 1007.7 0.0
20/05:52am 19.2 20.4 19.0 99 0.1 ESE 11 17 6 9 1010.1 1007.6 0.0
20/05:43am 19.3 20.1 19.1 99 0.1 ESE 13 17 7 9 1010.0 1007.5 0.0
20/05:30am 18.6 19.9 18.4 99 0.1 ESE 9 11 5 6 1009.7 1007.2 0.0
20/05:00am 17.0 18.8 15.5 91 0.9 CALM 0 0 0 0 1009.2 1006.7 0.0
20/04:30am 17.3 19.2 15.8 91 0.9 CALM 0 0 0 0 1008.5 1006.0 0.0
20/04:00am 17.3 19.0 15.3 88 1.2 CALM 0 0 0 0 1008.3 1005.8 0.0
20/03:30am 18.0 19.8 16.5 91 0.9 SSE 2 7 1 4 1008.2 1005.7 0.0
20/03:00am 18.4 20.6 16.6 89 1.1 CALM 0 0 0 0 1008.2 1005.7 0.0
20/02:30am 18.8 21.0 16.4 86 1.5 CALM 0 0 0 0 1008.1 1005.6 0.0
20/02:00am 20.0 21.1 18.1 89 1.2 E 9 9 5 5 1008.1 1005.6 0.0
20/01:30am 20.0 21.7 18.1 89 1.2 E 6 9 3 5 1008.3 1005.8 0.0
20/01:00am 20.0 21.2 16.8 82 2.0 E 6 9 3 5 1008.5 1006.0 0.0
20/12:30am 21.5 23.6 18.1 81 2.2 E 4 7 2 4 1009.1 1006.6 0.0
20/12:00am 21.8 24.5 17.8 78 2.5 CALM 0 2 0 1 1009.5 1007.0 0.0
 
Date/Time
EST
Temp
°C
App
Temp
°C
Dew
Point
°C
Rel
Hum
%
Delta-T
°C
Wind Press
QNH
hPa
Press
MSL
hPa
Rain since
9am
mm
Dir  Spd
km/h
Gust
km/h
Spd
kts
Gust
kts
19/11:30pm 22.2 24.7 17.3 74 3.1 CALM 0 6 0 3 1009.7 1007.2 0.0
19/11:00pm 23.6 25.6 18.7 74 3.2 ENE 6 9 3 5 1009.7 1007.2 0.0
19/10:30pm 24.2 26.2 18.8 72 3.5 ENE 6 11 3 6 1010.1 1007.6 0.0
19/10:00pm 24.9 28.0 18.6 68 4.1 CALM 0 0 0 0 1010.1 1007.6 0.0
19/09:30pm 25.9 27.9 18.8 65 4.6 ENE 6 9 3 5 1009.7 1007.2 0.0
19/09:00pm 26.7 28.2 18.0 59 5.6 ENE 7 11 4 6 1009.5 1007.0 0.0
19/08:30pm 27.6 28.4 15.9 49 7.3 NE 6 11 3 6 1009.3 1006.8 0.0
19/08:00pm 28.4 28.4 13.5 40 9.0 ENE 6 11 3 6 1008.7 1006.2 0.0
19/07:30pm 28.5 28.0 9.2 30 10.9 ENE 2 7 1 4 1008.1 1005.6 0.0
19/07:00pm 29.3 27.4 8.9 28 11.5 ESE 9 11 5 6 1007.7 1005.2 0.0
19/06:30pm 31.5 29.6 9.1 25 12.8 E 9 13 5 7 1007.4 1004.9 0.0
19/06:00pm 33.4 30.6 10.1 24 13.7 E 15 20 8 11 1007.0 1004.5 0.0
19/05:30pm 33.8 30.0 9.8 23 14.0 ESE 20 28 11 15 1006.6 1004.0 0.0
19/05:00pm 35.3 31.5 9.7 21 15.1 E 20 32 11 17 1006.2 1003.7 0.0
19/04:30pm 36.0 33.4 9.5 20 15.5 ESE 13 20 7 11 1006.0 1003.5 0.0
19/04:00pm 36.4 33.4 9.1 19 16.0 ESE 15 24 8 13 1005.9 1003.4 0.0
19/03:30pm 36.2 32.5 8.1 18 16.2 ESE 17 26 9 14 1006.0 1003.5 0.0
19/03:00pm 36.1 33.6 11.0 22 15.1 ESE 15 26 8 14 1006.4 1003.9 0.0
19/02:30pm 35.0 33.4 10.1 22 14.7 ENE 9 24 5 13 1006.8 1004.3 0.0
19/02:00pm 35.0 32.8 10.8 23 14.4 SSE 13 26 7 14 1007.2 1004.7 0.0
19/01:30pm 35.0 32.8 12.0 25 13.9 SE 15 28 8 15 1007.8 1005.3 0.0
19/01:00pm 33.4 31.6 10.7 25 13.4 SSE 11 20 6 11 1008.4 1005.9 0.0
19/12:30pm 33.0 31.6 12.1 28 12.6 ESE 11 15 6 8 1008.9 1006.5 0.0
19/12:00pm 32.4 31.7 12.1 29 12.2 E 7 17 4 9 1009.5 1007.0 0.0
19/11:30am 31.6 30.5 11.9 30 11.8 ESE 9 13 5 7 1010.1 1007.6 0.0
19/11:00am 30.7 30.2 12.6 33 10.9 N 7 11 4 6 1010.5 1008.0 0.0
19/10:30am 29.5 29.5 13.7 38 9.6 WNW 6 9 3 5 1010.9 1008.5 0.0
19/10:00am 27.7 27.3 12.9 40 8.8 NE 7 17 4 9 1011.2 1008.8 0.0
19/09:30am 27.0 27.1 15.4 49 7.2 ESE 9 15 5 8 1011.5 1009.0 0.0
19/09:00am 25.6 25.7 15.6 54 6.2 E 9 17 5 9 1011.7 1009.2 0.0
19/08:30am 24.4 24.7 16.1 60 5.1 ENE 9 15 5 8 1011.6 1009.1 0.0
19/08:00am 22.8 23.3 16.6 68 3.9 E 9 13 5 7 1011.6 1009.1 0.0
19/07:30am 20.9 22.6 17.1 79 2.4 S 4 7 2 4 1011.5 1009.0 0.0
19/07:00am 18.6 19.7 16.6 88 1.2 S 6 7 3 4 1011.3 1008.9 0.0
19/06:30am 15.9 17.1 13.9 88 1.2 CALM 0 0 0 0 1011.2 1008.8 0.0
19/06:00am 14.6 14.4 13.0 90 0.9 S 6 7 3 4 1011.0 1008.6 0.0
19/05:30am 14.5 14.3 12.9 90 0.9 SSE 6 7 3 4 1010.7 1008.2 0.0
19/05:00am 14.4 13.9 12.8 90 0.9 S 7 9 4 5 1010.4 1007.9 0.0
19/04:30am 14.4 14.9 12.8 90 0.9 SSE 2 9 1 5 1010.5 1008.0 0.0
19/04:00am 15.1 16.1 13.3 89 1.0 CALM 0 0 0 0 1010.5 1008.0 0.0

Latest Capital City Observations: Canberra | Sydney | Melbourne | Brisbane | Adelaide | Perth | Hobart | Darwin

Other formats

Comma delimited format used in spreadsheet applications
http://www.bom.gov.au/fwo/IDQ60901/IDQ60901.94549.axf

JavaScript Object Notation format (JSON) in row-major order
http://www.bom.gov.au/fwo/IDQ60901/IDQ60901.94549.json

Data quality

Most of these data are generated automatically and are frequently updated. Quality checks on data are not normally performed. It is possible for incorrect values to appear. Refer to information at About Latest Weather Observations and please check the disclaimer before using these data.